Terminal Aerodrome Forecast
Issued by NWS Bismarck, ND

Home | Current Version | Previous Version | Text Only | Print | Product List | Glossary Off
Versions: 1 2 3 4 5 6 7 8 9 10 11 12 13 14 15 16 17 18 19 20 21 22 23

000
FTUS43 KBIS 191612 AAC
TAFISN
TAF AMD
KISN 191612Z 1916/2012 08007KT 5SM BR OVC004
     FM191700 09006KT P6SM OVC006
     FM192000 08005KT P6SM BKN008
     FM200100 05003KT P6SM SCT010 BKN250
     FM200500 30004KT P6SM VCSH BKN070 OVC100=

USA.gov is the U.S. government's official web portal to all federal, state and local government web resources and services.